• Join FlightAware (Why Join?)
  • Login
  • US Flag 
08:28AM EST


 

Airport Tracker/Info


-or-


 

Live Flight TrackerFlight Track Log ✈ N400PU ✈ 06-Jun-2013 ✈ KMCO - KLAF

Flight Track Log - Related Links

Times and Time Zones

All times are in EDT time to prevent confusion due to time zone crossing. See the N400PU flight status page for this flight to view local times or setup timezone preferences in your user account.

Time Position Orientation Groundspeed Altitude Reporting Facility
EDT Latitude Longitude Course Direction KTS MPH feet Rate Location/Type
03:32PM 28.4167 -81.3333 180° South 145 167 500  Level Orlando TRACON
03:33PM 28.4000 -81.3333 180° South 163 188 1,300 2,640 Climbing Orlando TRACON
03:34PM 28.3500 -81.3500 196° South 210 242 4,000 2,700 Climbing Orlando TRACON
03:35PM 28.3167 -81.4000 233° Southwest 250 288 6,800 2,640 Climbing Orlando TRACON
03:36PM 28.3167 -81.4833 270° West 244 281 9,300 2,160 Climbing Orlando TRACON
03:37PM 28.3833 -81.5167 336° Northwest 327 376 11,200 1,980 Climbing Orlando TRACON
03:39PM 28.5808 -81.5286 357° North 351 404 15,500 1,920 Climbing Jacksonville Center
03:40PM 28.6833 -81.5414 354° North 341 392 17,300 1,860 Climbing Jacksonville Center
03:41PM 28.7794 -81.5567 352° North 341 392 19,300 1,800 Climbing Jacksonville Center
03:42PM 28.8797 -81.5694 354° North 352 405 21,000 1,440 Climbing Jacksonville Center
03:43PM 28.9800 -81.5847 352° North 352 405 22,200 1,200 Climbing Jacksonville Center
03:44PM 29.0825 -81.5953 355° North 364 419 23,500 1,320 Climbing Jacksonville Center
03:45PM 29.1892 -81.6081 354° North 371 427 24,900 1,200 Climbing Jacksonville Center
03:46PM 29.2833 -81.6258 351° North 371 427 26,000 540 Climbing Jacksonville Center
03:47PM 29.3939 -81.6436 352° North 383 441 26,000 600 Level Jacksonville Center
03:48PM 29.5050 -81.6756 346° North 397 457 27,300 1,200 Climbing Jacksonville Center
03:49PM 29.6097 -81.7125 343° North 397 457 28,400 900 Climbing Jacksonville Center
03:50PM 29.7122 -81.7447 345° North 392 451 29,200 720 Climbing Jacksonville Center
03:51PM 29.8189 -81.7744 346° North 387 445 29,900 660 Climbing Jacksonville Center
03:52PM 29.9236 -81.8044 346° North 382 440 30,600 660 Climbing Jacksonville Center
03:53PM 30.0283 -81.8297 348° North 382 440 31,300 600 Climbing Jacksonville Center
03:54PM 30.1350 -81.8597 346° North 382 440 31,900 600 Climbing Jacksonville Center
03:55PM 30.2397 -81.8875 347° North 382 440 32,500 540 Climbing Jacksonville Center
03:56PM 30.3442 -81.9225 344° North 382 440 33,000 600 Climbing Jacksonville Center
03:57PM 30.4489 -81.9625 342° North 382 440 33,700 600 Climbing Jacksonville Center
03:58PM 30.5414 -82.0267 329° Northwest 382 440 34,200 600 Climbing Jacksonville Center
03:59PM 30.6419 -82.1078 325° Northwest 395 455 34,900 360 Climbing Jacksonville Center
04:00PM 30.7322 -82.1747 327° Northwest 390 449 35,000  Climbing Jacksonville Center
04:01PM 30.8267 -82.2467 327° Northwest 395 455 35,000  Level Jacksonville Center
04:02PM 30.9231 -82.3211 326° Northwest 406 467 35,000  Level Jacksonville Center
04:03PM 31.0233 -82.3956 328° Northwest 420 483 35,000  Level Jacksonville Center
04:04PM 31.1261 -82.4728 327° Northwest 431 496 35,000  Level Jacksonville Center
04:05PM 31.2306 -82.5500 328° Northwest 436 502 35,100 360 Climbing Jacksonville Center
04:06PM 31.3289 -82.6275 326° Northwest 436 502 35,800 720 Climbing Jacksonville Center
04:07PM 31.4253 -82.6978 328° Northwest 424 488 36,600 600 Climbing Jacksonville Center
04:08PM 31.5256 -82.7731 327° Northwest 419 482 37,100 480 Climbing Jacksonville Center
04:09PM 31.6217 -82.8461 327° Northwest 419 482 37,600 420 Climbing Jacksonville Center
04:11PM 31.8364 -83.0144 326° Northwest 424 488 38,600 420 Climbing Atlanta Center
04:12PM 31.9328 -83.0869 327° Northwest 418 481 39,000 180 Climbing Atlanta Center
04:13PM 32.0317 -83.1667 326° Northwest 423 487 39,000  Level Atlanta Center
04:14PM 32.1344 -83.2442 327° Northwest 429 494 39,100 300 Climbing Atlanta Center
04:15PM 32.2350 -83.3244 326° Northwest 429 494 39,600 420 Climbing Atlanta Center
04:16PM 32.3356 -83.4022 327° Northwest 434 499 40,000 180 Climbing Atlanta Center
04:17PM 32.4403 -83.4850 326° Northwest 445 512 40,000  Level Atlanta Center
04:18PM 32.5431 -83.5681 326° Northwest 445 512 40,000  Level Atlanta Center
04:19PM 32.6497 -83.6492 327° Northwest 445 512 40,000  Level Atlanta Center
04:20PM 32.7544 -83.7325 326° Northwest 450 518 40,000  Level Atlanta Center
04:21PM 32.8589 -83.8164 326° Northwest 450 518 40,000  Level Atlanta Center
04:22PM 32.9614 -83.9003 326° Northwest 445 512 40,000  Level Atlanta Center
04:23PM 33.0617 -83.9819 326° Northwest 445 512 40,000  Level Atlanta Center
04:24PM 33.1658 -84.0661 326° Northwest 445 512 40,000  Level Atlanta Center
04:25PM 33.2681 -84.1481 326° Northwest 451 519 40,000  Level Atlanta Center
04:26PM 33.3683 -84.2278 326° Northwest 443 510 40,000  Level Atlanta Center
04:27PM 33.4725 -84.3128 326° Northwest 443 510 40,000  Level Atlanta Center
04:28PM 33.5661 -84.3878 326° Northwest 448 516 40,000  Level Atlanta Center
04:29PM 33.6933 -84.4558 336° Northwest 454 522 40,000  Level Atlanta Center
04:30PM 33.8206 -84.4839 350° North 442 509 40,000  Level Atlanta Center
04:31PM 33.9458 -84.5144 349° North 454 522 40,000  Level Atlanta Center
04:32PM 34.0625 -84.5428 349° North 462 532 40,000  Level Atlanta Center
04:33PM 34.2106 -84.5764 349° North 480 552 40,000  Level Atlanta Center
04:34PM 34.3356 -84.6072 348° North 469 540 40,000  Level Atlanta Center
04:35PM 34.4503 -84.6358 348° North 469 540 40,100 180 Climbing Atlanta Center
04:36PM 34.5775 -84.6644 350° North 469 540 40,400 360 Climbing Atlanta Center
04:37PM 34.6983 -84.6981 347° North 457 526 40,900 420 Climbing Atlanta Center
04:38PM 34.8233 -84.7294 348° North 451 519 41,300 360 Climbing Atlanta Center
04:39PM 34.9589 -84.7636 348° North 451 519 41,700 420 Climbing Atlanta Center
04:40PM 35.0797 -84.7950 348° North 446 513 42,200 420 Climbing Atlanta Center
04:41PM 35.1983 -84.8217 350° North 446 513 42,600 300 Climbing Atlanta Center
04:42PM 35.3172 -84.8533 348° North 441 507 42,900 180 Climbing Atlanta Center
04:43PM 35.4358 -84.8825 349° North 441 507 43,000  Climbing Atlanta Center
04:44PM 35.5586 -84.9144 348° North 441 507 43,000  Level Atlanta Center
04:45PM 35.6775 -84.9436 349° North 436 502 43,000  Level Atlanta Center
04:46PM 35.8044 -84.9733 349° North 436 502 43,000  Level Atlanta Center
04:47PM 35.9272 -85.0056 348° North 448 516 43,000  Level Atlanta Center
04:47PM 35.9706 -85.0178 347° North 459 528 43,000  Level Indianapolis Center
04:48PM 36.0825 -85.0456 349° North 452 520 43,000  Level Indianapolis Center
04:49PM 36.2308 -85.0825 349° North 452 520 43,000  Level Indianapolis Center
04:50PM 36.3542 -85.1144 348° North 453 521 43,000  Level Indianapolis Center
04:51PM 36.4794 -85.1469 348° North 457 526 43,000  Level Indianapolis Center
04:52PM 36.6056 -85.1806 348° North 462 532 43,000  Level Indianapolis Center
04:53PM 36.7328 -85.2122 349° North 466 536 43,000  Level Indianapolis Center
04:55PM 36.8583 -85.2450 348° North 463 533 43,000  Level Indianapolis Center
04:56PM 37.0083 -85.2853 348° North 458 527 43,000  Level Indianapolis Center
04:57PM 37.1303 -85.3169 348° North 452 520 43,000  Level Indianapolis Center
04:58PM 37.2539 -85.3494 348° North 452 520 43,000  Level Indianapolis Center
04:59PM 37.3769 -85.3822 348° North 451 519 43,000  Level Indianapolis Center
05:00PM 37.5031 -85.4158 348° North 457 526 43,000  Level Indianapolis Center
05:01PM 37.6261 -85.4503 348° North 454 522 43,000  Level Indianapolis Center
05:02PM 37.7594 -85.5192 338° Northwest 444 511 43,000  Level Indianapolis Center
05:03PM 37.8775 -85.5783 338° Northwest 442 509 43,000 -60 Level Indianapolis Center
05:04PM 37.9892 -85.6358 338° Northwest 433 498 42,900 -540 Descending Indianapolis Center
05:05PM 38.1022 -85.6936 338° Northwest 436 502 41,900 -1,080 Descending Indianapolis Center
05:06PM 38.2119 -85.7517 337° Northwest 430 495 40,700 -1,260 Descending Indianapolis Center
05:07PM 38.3258 -85.8103 338° Northwest 440 506 39,400 -1,380 Descending Indianapolis Center
05:08PM 38.4372 -85.8683 338° Northwest 434 499 37,900 -1,620 Descending Indianapolis Center
05:09PM 38.5656 -85.9361 338° Northwest 419 482 36,100 -1,500 Descending Indianapolis Center
05:10PM 38.6633 -85.9875 338° Northwest 387 445 34,800 -1,020 Descending Indianapolis Center
05:11PM 38.7639 -86.0394 338° Northwest 391 450 34,000 -840 Descending Indianapolis Center
05:12PM 38.8694 -86.0972 337° Northwest 410 472 33,100 -1,080 Descending Indianapolis Center
05:13PM 38.9681 -86.1497 338° Northwest 391 450 31,800 -960 Descending Indianapolis Center
05:14PM 39.0681 -86.1792 347° North 375 432 31,100 -900 Descending Indianapolis Center
05:15PM 39.1897 -86.2375 340° North 393 452 30,000 -900 Descending Indianapolis Center
05:16PM 39.2936 -86.2958 337° Northwest 404 465 29,300 -1,800 Descending Indianapolis Center
05:17PM 39.4014 -86.3561 337° Northwest 418 481 26,300 -2,580 Descending Indianapolis Center
05:18PM 39.5114 -86.4186 336° Northwest 429 494 24,000 -1,140 Descending Indianapolis Center
05:19PM 39.6167 -86.4781 336° Northwest 415 478 24,000 -1,260 Level Indianapolis Center
05:20PM 39.7161 -86.5350 336° Northwest 380 437 21,500 -3,300 Descending Indianapolis Center
05:21PM 39.8086 -86.5886 336° Northwest 361 415 17,300 -3,900 Descending Indianapolis Center
05:22PM 39.8967 -86.6394 336° Northwest 348 400 13,500 -3,120 Descending Indianapolis Center
05:23PM 39.9956 -86.6961 336° Northwest 326 375 10,900 -2,400 Descending Indianapolis Center
05:25PM 40.0650 -86.7358 336° Northwest 284 327 8,600 -2,340 Descending Indianapolis Center
05:26PM 40.1325 -86.7753 336° Northwest 270 311 6,100 -2,340 Descending Indianapolis Center
05:26PM 40.1606 -86.7911 337° Northwest 273 314 5,200 -2,280 Descending Chicago Center
05:26PM 40.1903 -86.8097 334° Northwest 260 299 4,300 -1,680 Descending Chicago Center
05:27PM 40.2242 -86.8278 338° Northwest 264 304 3,500 -1,320 Descending Chicago Center
05:27PM 40.2475 -86.8436 333° Northwest 244 281 3,000 -540 Descending Chicago Center
05:28PM 40.2800 -86.8600 339° North 240 276 3,000 -240 Level Chicago Center
05:28PM 40.3025 -86.8744 334° Northwest 215 247 2,800 -540 Descending Chicago Center
05:29PM 40.3392 -86.8922 340° North 210 242 2,500 -540 Descending Chicago Center
05:29PM 40.3494 -86.9019 324° Northwest 193 222 2,300 -240 Descending Chicago Center
05:30PM 40.3878 -86.9206 340° North 207 238 2,300 -240 Level Chicago Center
05:30PM 40.3833 -86.9453 257° West 182 209 2,100 -360 Descending Chicago Center
05:31PM 40.3872 -87.0056 275° West 177 204 1,900 -300 Descending Chicago Center
05:32PM 40.4189 -86.9967 12° North 144 166 1,500 -420 Descending Chicago Center
05:34PM 40.4000 -86.9333 333° Northwest  Level FlightAware Approximate
05:41PM 40.4123 -86.9369 333° Northwest  Level Estimated